createdAt,value
2019-01-24T00:00:57.610Z,73.70
2019-01-24T00:05:58.902Z,73.70
2019-01-24T00:11:00.301Z,74.30
2019-01-24T00:16:01.569Z,75.10
2019-01-24T00:21:02.841Z,73.40
2019-01-24T00:26:04.122Z,73.70
2019-01-24T00:31:05.387Z,73.80
2019-01-24T00:36:06.659Z,73.90
2019-01-24T00:41:07.929Z,73.50
2019-01-24T00:46:09.206Z,73.50
2019-01-24T00:51:10.479Z,74.10
2019-01-24T00:56:11.754Z,75.00
2019-01-24T01:01:13.030Z,74.80
2019-01-24T01:06:14.329Z,74.90
2019-01-24T01:11:15.917Z,74.20
2019-01-24T01:16:17.189Z,74.30
2019-01-24T01:21:18.453Z,74.20
2019-01-24T01:26:19.727Z,74.50
2019-01-24T01:31:21.006Z,75.00
2019-01-24T01:36:22.641Z,74.90
2019-01-24T01:41:23.915Z,75.70
2019-01-24T01:46:25.190Z,75.50
2019-01-24T01:51:26.790Z,75.30
2019-01-24T01:56:28.434Z,74.60
2019-01-24T02:01:29.706Z,74.50
2019-01-24T02:06:31.105Z,74.90
2019-01-24T02:11:32.780Z,74.90
2019-01-24T02:16:34.428Z,74.70
2019-01-24T02:21:35.706Z,74.70
2019-01-24T02:26:37.274Z,75.00
2019-01-24T02:31:38.854Z,73.90
2019-01-24T02:36:40.427Z,74.30
2019-01-24T02:41:42.001Z,74.50
2019-01-24T02:46:43.279Z,74.20
2019-01-24T02:51:44.538Z,74.10
2019-01-24T02:56:45.833Z,73.90
2019-01-24T03:01:47.125Z,74.00
2019-01-24T03:06:48.758Z,73.60
2019-01-24T03:11:50.327Z,72.90
2019-01-24T03:16:51.598Z,73.80
2019-01-24T03:21:52.866Z,73.70
2019-01-24T03:26:54.138Z,73.80
2019-01-24T03:31:55.407Z,74.60
2019-01-24T03:36:56.667Z,74.40
2019-01-24T03:41:57.946Z,73.20
2019-01-24T03:46:59.222Z,73.50
2019-01-24T03:52:00.532Z,73.40
2019-01-24T03:57:02.232Z,73.50
2019-01-24T04:02:03.462Z,73.30
2019-01-24T04:07:04.769Z,73.50
2019-01-24T04:12:06.048Z,73.90
2019-01-24T04:17:07.321Z,74.40
2019-01-24T04:22:08.582Z,74.50
2019-01-24T04:27:09.859Z,73.40
2019-01-24T04:32:11.130Z,74.30
2019-01-24T04:37:12.713Z,74.90
2019-01-24T04:42:13.989Z,74.80
2019-01-24T04:47:15.553Z,75.30
2019-01-24T04:52:16.830Z,75.80
2019-01-24T04:57:18.129Z,75.60
2019-01-24T05:02:19.402Z,75.70
2019-01-24T05:07:20.703Z,76.10
2019-01-24T05:12:22.312Z,75.90
2019-01-24T05:17:23.595Z,76.50
2019-01-24T05:22:24.891Z,76.90
2019-01-24T05:27:26.170Z,76.50
2019-01-24T05:32:27.823Z,77.10
2019-01-24T05:37:29.102Z,77.10
2019-01-24T05:42:30.369Z,77.00
2019-01-24T05:47:31.645Z,76.20
2019-01-24T05:52:33.277Z,77.00
2019-01-24T05:57:34.859Z,76.20
2019-01-24T06:02:36.130Z,76.00
2019-01-24T06:07:37.446Z,75.60
2019-01-24T06:12:38.714Z,76.30
2019-01-24T06:17:40.334Z,75.90
2019-01-24T06:22:41.614Z,75.70
2019-01-24T06:27:42.884Z,76.00
2019-01-24T06:32:44.493Z,76.00
2019-01-24T06:37:46.259Z,76.10
2019-01-24T06:42:47.527Z,76.30
2019-01-24T06:47:48.802Z,76.40
2019-01-24T06:52:50.061Z,76.30
2019-01-24T06:57:51.345Z,76.60
2019-01-24T07:02:52.643Z,76.60
2019-01-24T07:07:53.923Z,76.50
2019-01-24T07:12:55.186Z,76.50
2019-01-24T07:17:56.823Z,76.50
2019-01-24T07:22:58.104Z,76.60
2019-01-24T07:27:59.738Z,76.30
2019-01-24T07:33:01.009Z,75.60
2019-01-24T07:38:02.291Z,76.30
2019-01-24T07:43:03.557Z,76.60
2019-01-24T07:48:05.227Z,76.40
2019-01-24T07:53:06.498Z,75.50
2019-01-24T07:58:08.061Z,75.20
2019-01-24T08:03:09.335Z,76.10
2019-01-24T08:08:10.689Z,75.90
2019-01-24T08:13:11.910Z,76.20
2019-01-24T08:18:13.546Z,75.40
2019-01-24T08:23:14.825Z,76.30
2019-01-24T08:28:16.390Z,76.40
2019-01-24T08:33:17.665Z,76.80
2019-01-24T08:38:19.271Z,76.50
2019-01-24T08:43:20.538Z,76.90
2019-01-24T08:48:22.221Z,75.80
2019-01-24T08:53:23.486Z,75.80
2019-01-24T08:58:24.809Z,75.90
2019-01-24T09:03:26.079Z,76.90
2019-01-24T09:08:27.378Z,76.10
2019-01-24T09:13:28.661Z,75.30
2019-01-24T09:18:30.284Z,75.50
2019-01-24T09:23:31.558Z,74.20
2019-01-24T09:28:32.837Z,74.20
2019-01-24T09:33:34.114Z,74.30
2019-01-24T09:38:35.382Z,73.20
2019-01-24T09:43:36.662Z,72.70
2019-01-24T09:48:37.929Z,71.00
2019-01-24T09:53:39.210Z,70.00
2019-01-24T09:58:40.496Z,70.10
2019-01-24T10:03:42.133Z,70.40
2019-01-24T10:08:43.469Z,70.10
2019-01-24T10:13:44.747Z,70.90
2019-01-24T10:18:46.350Z,70.10
2019-01-24T10:23:47.926Z,68.60
2019-01-24T10:28:49.197Z,70.30
2019-01-24T10:33:50.479Z,69.80
2019-01-24T10:38:51.758Z,68.00
2019-01-24T10:43:53.039Z,68.20
2019-01-24T10:48:54.313Z,66.50
2019-01-24T10:53:55.589Z,67.30
2019-01-24T10:58:56.970Z,67.30
2019-01-24T11:03:58.286Z,67.60
2019-01-24T11:08:59.557Z,66.60
2019-01-24T11:14:00.829Z,66.40
2019-01-24T11:19:02.106Z,67.10
2019-01-24T11:24:03.714Z,67.60
2019-01-24T11:29:05.096Z,68.20
2019-01-24T11:34:06.362Z,67.60
2019-01-24T11:39:07.646Z,67.10
2019-01-24T11:44:08.925Z,66.20
2019-01-24T11:49:10.197Z,66.00
2019-01-24T11:54:11.762Z,65.60
2019-01-24T11:59:13.038Z,67.30
2019-01-24T12:04:14.348Z,66.50
2019-01-24T12:09:15.625Z,65.60
2019-01-24T12:14:16.903Z,65.30
2019-01-24T12:19:18.181Z,66.30
2019-01-24T12:24:19.787Z,66.10
2019-01-24T12:29:21.052Z,65.30
2019-01-24T12:34:22.330Z,65.10
2019-01-24T12:39:23.606Z,66.30
2019-01-24T12:44:24.882Z,64.50
2019-01-24T12:49:26.161Z,65.80
2019-01-24T12:54:27.438Z,65.20
2019-01-24T12:59:28.725Z,65.90
2019-01-24T13:04:30.021Z,63.80
2019-01-24T13:09:31.601Z,65.30
2019-01-24T13:14:32.886Z,63.80
2019-01-24T13:19:34.319Z,63.10
2019-01-24T13:24:35.591Z,62.10
2019-01-24T13:29:36.867Z,63.10
2019-01-24T13:34:38.143Z,61.20
2019-01-24T13:39:39.413Z,61.00
2019-01-24T13:44:41.000Z,60.80
2019-01-24T13:49:42.270Z,62.20
2019-01-24T13:54:43.854Z,60.90
2019-01-24T13:59:45.126Z,61.50
2019-01-24T14:04:46.433Z,60.40
2019-01-24T14:09:47.714Z,60.50
2019-01-24T14:14:49.113Z,61.50
2019-01-24T14:19:50.730Z,60.80
2019-01-24T14:24:52.254Z,60.70
2019-01-24T14:29:53.531Z,61.30
2019-01-24T14:34:55.015Z,60.70
2019-01-24T14:39:56.363Z,60.70
2019-01-24T14:44:57.601Z,61.90
2019-01-24T14:49:58.869Z,62.30
2019-01-24T14:55:00.494Z,63.60
2019-01-24T15:00:04.174Z,63.20
2019-01-24T15:05:08.686Z,62.90
2019-01-24T15:10:12.962Z,62.90
2019-01-24T15:15:15.638Z,63.50
2019-01-24T15:20:18.313Z,62.60
2019-01-24T15:25:21.391Z,62.70
2019-01-24T15:30:24.655Z,63.50
2019-01-24T15:35:26.333Z,63.60
2019-01-24T15:40:30.115Z,63.30
2019-01-24T15:45:31.739Z,64.70
2019-01-24T15:50:33.422Z,61.40
2019-01-24T15:55:34.691Z,62.50
2019-01-24T16:00:36.202Z,61.90
2019-01-24T16:05:37.510Z,62.90
2019-01-24T16:10:38.785Z,63.80
2019-01-24T16:15:40.062Z,63.50
2019-01-24T16:20:41.341Z,63.50
2019-01-24T16:25:43.013Z,64.40
2019-01-24T16:30:44.686Z,63.30
2019-01-24T16:35:45.930Z,62.50
2019-01-24T16:40:47.220Z,64.40
2019-01-24T16:45:48.468Z,65.90
2019-01-24T16:50:49.781Z,65.90
2019-01-24T16:55:51.409Z,66.20
2019-01-24T17:00:52.889Z,66.40
2019-01-24T17:05:54.187Z,66.30
2019-01-24T17:10:55.858Z,67.10
2019-01-24T17:15:57.133Z,67.20
2019-01-24T17:20:58.410Z,67.40
2019-01-24T17:25:59.676Z,67.10
2019-01-24T17:31:00.960Z,68.50
2019-01-24T17:36:02.230Z,68.90
2019-01-24T17:41:03.886Z,69.90
2019-01-24T17:46:05.449Z,69.80
2019-01-24T17:51:06.716Z,69.70
2019-01-24T17:56:07.989Z,69.00
2019-01-24T18:01:09.376Z,69.20
2019-01-24T18:06:10.705Z,68.90
2019-01-24T18:11:12.362Z,68.90
2019-01-24T18:16:13.594Z,68.70
2019-01-24T18:21:14.870Z,68.20
2019-01-24T18:26:16.151Z,69.30
2019-01-24T18:31:17.418Z,69.30
2019-01-24T18:36:19.070Z,68.70
2019-01-24T18:41:20.342Z,68.20
2019-01-24T18:46:21.611Z,69.20
2019-01-24T18:51:23.278Z,69.10
2019-01-24T18:56:24.933Z,69.20
2019-01-24T19:01:26.529Z,69.00
2019-01-24T19:06:27.835Z,69.60
2019-01-24T19:11:29.134Z,69.70
2019-01-24T19:16:30.745Z,69.20
2019-01-24T19:21:32.039Z,69.60
2019-01-24T19:26:33.317Z,70.00
2019-01-24T19:31:34.588Z,68.70
2019-01-24T19:36:36.242Z,67.70
2019-01-24T19:41:37.541Z,67.30
2019-01-24T19:46:39.039Z,67.00
2019-01-24T19:51:40.318Z,67.00
2019-01-24T19:56:41.604Z,67.60
2019-01-24T20:01:42.885Z,66.40
2019-01-24T20:06:44.182Z,66.60
2019-01-24T20:11:45.457Z,65.40
2019-01-24T20:16:46.759Z,65.70
2019-01-24T20:21:48.365Z,64.40
2019-01-24T20:26:50.519Z,62.90
2019-01-24T20:31:51.806Z,63.90
2019-01-24T20:36:53.400Z,64.10
2019-01-24T20:41:55.002Z,62.80
2019-01-24T20:46:56.279Z,64.00
2019-01-24T20:51:57.551Z,63.90
2019-01-24T20:56:58.821Z,61.80
2019-01-24T21:02:00.104Z,62.70
2019-01-24T21:07:01.410Z,62.60
2019-01-24T21:12:03.057Z,62.10
2019-01-24T21:17:04.309Z,61.90
2019-01-24T21:22:05.674Z,61.40
2019-01-24T21:27:06.946Z,60.50
2019-01-24T21:32:08.225Z,62.10
2019-01-24T21:37:10.555Z,61.60
2019-01-24T21:42:11.965Z,60.20
2019-01-24T21:47:13.621Z,60.80
2019-01-24T21:52:14.912Z,61.50
2019-01-24T21:57:16.595Z,60.30
2019-01-24T22:02:17.890Z,62.20
2019-01-24T22:07:19.192Z,60.70
2019-01-24T22:12:20.470Z,60.50
2019-01-24T22:17:21.749Z,61.50
2019-01-24T22:22:23.026Z,61.30
2019-01-24T22:27:24.317Z,61.10
2019-01-24T22:32:25.577Z,60.10
2019-01-24T22:37:26.853Z,59.90
2019-01-24T22:42:28.500Z,59.40
2019-01-24T22:47:29.773Z,61.00
2019-01-24T22:52:31.051Z,61.30
2019-01-24T22:57:32.321Z,60.80
2019-01-24T23:02:33.593Z,59.60
2019-01-24T23:07:35.249Z,60.90
2019-01-24T23:12:36.818Z,60.10
2019-01-24T23:17:38.423Z,60.10
2019-01-24T23:22:39.698Z,59.20
2019-01-24T23:27:40.964Z,59.50
2019-01-24T23:32:42.638Z,60.40
2019-01-24T23:37:44.296Z,61.30
2019-01-24T23:42:45.566Z,60.50
2019-01-24T23:47:47.164Z,60.70
2019-01-24T23:52:48.838Z,61.00
2019-01-24T23:57:50.484Z,61.70
